Hovedside
METAR-TAF:

METAR-TAF

Lufthavner :

Villmanstrand, Finland

Villmanstrand lufthavn

breddegrad: 61-02-45N, lengdegrad: 028-08-55E, høyde over havet: 106 m

Gjeldene værobservasjon

Denne rapporten ble laget for 32 minutter siden, klokken 18:50 UTC
Vind 6 kt fra Øst-nordøst, skiftende mellom Nordøst og Sørøst
Temperatur 5°C
Luftfuktighet 87%
Trykk 1017 hPa
Sikt 10 km eller mer
Overskyet i en høyde av 5400 ft
lette regnbyger

METAR: EFLP 271850Z AUTO 07006KT 040V130 9999 -SHRA OVC054 05/03 Q1017

Tid: 22:22 (19:22 UTC)


TAF: fraværende

Værobservasjoner og værvarsel for over 4000 flyplasser (METAR- og TAF-rapporter).

Tilgjengelige stasjoner er representert av de røde og gule prikkene på kartet.

Hold musepekeren over prikken for å se navnet på stasjonen.

Klikk så for å se værobservasjoner og -varsler.

For å forandre kartet kan du klikke på den grønne knappen med svart kryss for å zoome inn, på den grønne knappen med strek for å zoome ut, eller på de grønne pilene for å se tilstøtende kart.


METAR-TAF: